sensor_id;sensor_type;location;lat;lon;timestamp;temperature;humidity
5802;DHT22;2927;49.366;8.530;2022-08-03T00:00:08;22.90;1.00
5802;DHT22;2927;49.366;8.530;2022-08-03T00:02:34;22.80;7.10
5802;DHT22;2927;49.366;8.530;2022-08-03T00:04:59;22.80;99.90
5802;DHT22;2927;49.366;8.530;2022-08-03T00:07:25;22.70;99.90
5802;DHT22;2927;49.366;8.530;2022-08-03T00:09:50;22.70;1.00
5802;DHT22;2927;49.366;8.530;2022-08-03T00:12:15;22.70;99.90
5802;DHT22;2927;49.366;8.530;2022-08-03T00:14:41;22.70;99.90
5802;DHT22;2927;49.366;8.530;2022-08-03T00:17:07;22.70;99.90
5802;DHT22;2927;49.366;8.530;2022-08-03T00:19:32;22.70;99.90
5802;DHT22;2927;49.366;8.530;2022-08-03T00:21:58;22.70;99.90
5802;DHT22;2927;49.366;8.530;2022-08-03T00:24:23;22.60;99.90
5802;DHT22;2927;49.366;8.530;2022-08-03T00:26:49;22.60;99.90
5802;DHT22;2927;49.366;8.530;2022-08-03T00:29:14;22.60;99.90
5802;DHT22;2927;49.366;8.530;2022-08-03T00:31:40;22.50;11.10
5802;DHT22;2927;49.366;8.530;2022-08-03T00:34:05;22.60;1.00
5802;DHT22;2927;49.366;8.530;2022-08-03T00:36:31;22.60;1.00
5802;DHT22;2927;49.366;8.530;2022-08-03T00:38:56;22.40;99.90
5802;DHT22;2927;49.366;8.530;2022-08-03T00:41:22;22.30;1.00
5802;DHT22;2927;49.366;8.530;2022-08-03T00:43:48;22.30;1.00
5802;DHT22;2927;49.366;8.530;2022-08-03T00:46:13;22.30;1.00
5802;DHT22;2927;49.366;8.530;2022-08-03T00:48:39;22.30;1.00
5802;DHT22;2927;49.366;8.530;2022-08-03T00:51:05;22.30;1.00
5802;DHT22;2927;49.366;8.530;2022-08-03T00:53:31;22.30;1.00
5802;DHT22;2927;49.366;8.530;2022-08-03T00:55:58;22.40;1.00
5802;DHT22;2927;49.366;8.530;2022-08-03T00:58:24;22.40;1.00
5802;DHT22;2927;49.366;8.530;2022-08-03T01:00:50;22.40;1.00
5802;DHT22;2927;49.366;8.530;2022-08-03T01:03:15;22.30;99.90
5802;DHT22;2927;49.366;8.530;2022-08-03T01:06:00;22.30;99.90
5802;DHT22;2927;49.366;8.530;2022-08-03T01:08:50;22.20;1.00
5802;DHT22;2927;49.366;8.530;2022-08-03T01:11:33;22.20;1.00
5802;DHT22;2927;49.366;8.530;2022-08-03T01:14:10;22.10;99.90
5802;DHT22;2927;49.366;8.530;2022-08-03T01:16:47;22.10;99.90
5802;DHT22;2927;49.366;8.530;2022-08-03T01:28:02;21.90;99.90
5802;DHT22;2927;49.366;8.530;2022-08-03T01:30:36;21.80;1.00
5802;DHT22;2927;49.366;8.530;2022-08-03T01:33:05;21.80;1.00
5802;DHT22;2927;49.366;8.530;2022-08-03T01:35:53;21.80;99.90
5802;DHT22;2927;49.366;8.530;2022-08-03T01:38:26;21.80;1.00
5802;DHT22;2927;49.366;8.530;2022-08-03T01:40:53;21.80;1.00
5802;DHT22;2927;49.366;8.530;2022-08-03T01:43:23;21.70;1.00
5802;DHT22;2927;49.366;8.530;2022-08-03T01:45:52;21.60;99.90
5802;DHT22;2927;49.366;8.530;2022-08-03T01:48:20;21.70;1.00
5802;DHT22;2927;49.366;8.530;2022-08-03T01:50:46;21.70;99.90
5802;DHT22;2927;49.366;8.530;2022-08-03T01:53:14;21.70;99.90
5802;DHT22;2927;49.366;8.530;2022-08-03T01:55:45;21.60;1.00
5802;DHT22;2927;49.366;8.530;2022-08-03T01:58:14;21.50;99.90
5802;DHT22;2927;49.366;8.530;2022-08-03T02:00:41;21.40;1.00
5802;DHT22;2927;49.366;8.530;2022-08-03T02:03:08;21.40;1.00
5802;DHT22;2927;49.366;8.530;2022-08-03T02:05:38;21.30;1.00
5802;DHT22;2927;49.366;8.530;2022-08-03T02:08:06;21.20;1.00
5802;DHT22;2927;49.366;8.530;2022-08-03T02:10:32;21.20;1.00
5802;DHT22;2927;49.366;8.530;2022-08-03T02:13:00;21.10;1.00
5802;DHT22;2927;49.366;8.530;2022-08-03T02:15:27;21.10;1.00
5802;DHT22;2927;49.366;8.530;2022-08-03T02:17:56;21.00;1.00
5802;DHT22;2927;49.366;8.530;2022-08-03T02:20:23;21.00;1.00
5802;DHT22;2927;49.366;8.530;2022-08-03T02:22:49;21.10;1.00
5802;DHT22;2927;49.366;8.530;2022-08-03T02:25:15;21.20;1.00
5802;DHT22;2927;49.366;8.530;2022-08-03T02:28:05;21.20;99.90
5802;DHT22;2927;49.366;8.530;2022-08-03T02:30:37;21.30;1.00
5802;DHT22;2927;49.366;8.530;2022-08-03T02:33:07;21.30;99.90
5802;DHT22;2927;49.366;8.530;2022-08-03T02:35:35;21.20;99.90
5802;DHT22;2927;49.366;8.530;2022-08-03T02:38:03;21.10;99.90
5802;DHT22;2927;49.366;8.530;2022-08-03T02:40:30;21.10;99.90
5802;DHT22;2927;49.366;8.530;2022-08-03T02:43:01;20.90;99.90
5802;DHT22;2927;49.366;8.530;2022-08-03T02:45:28;20.80;1.00
5802;DHT22;2927;49.366;8.530;2022-08-03T02:47:59;20.80;1.00
5802;DHT22;2927;49.366;8.530;2022-08-03T02:50:27;20.70;1.00
5802;DHT22;2927;49.366;8.530;2022-08-03T02:52:55;20.70;1.00
5802;DHT22;2927;49.366;8.530;2022-08-03T02:55:22;20.70;1.00
5802;DHT22;2927;49.366;8.530;2022-08-03T02:57:50;20.60;1.00
5802;DHT22;2927;49.366;8.530;2022-08-03T03:00:16;20.50;93.30
5802;DHT22;2927;49.366;8.530;2022-08-03T03:02:42;20.60;99.90
5802;DHT22;2927;49.366;8.530;2022-08-03T03:05:09;20.60;99.90
5802;DHT22;2927;49.366;8.530;2022-08-03T03:07:36;20.50;99.90
5802;DHT22;2927;49.366;8.530;2022-08-03T03:10:03;20.50;1.00
5802;DHT22;2927;49.366;8.530;2022-08-03T03:12:30;20.50;1.00
5802;DHT22;2927;49.366;8.530;2022-08-03T03:14:57;20.50;1.00
5802;DHT22;2927;49.366;8.530;2022-08-03T03:17:23;20.50;1.00
5802;DHT22;2927;49.366;8.530;2022-08-03T03:19:50;20.50;1.00
5802;DHT22;2927;49.366;8.530;2022-08-03T03:22:17;20.50;1.00
5802;DHT22;2927;49.366;8.530;2022-08-03T03:24:43;20.60;99.90
5802;DHT22;2927;49.366;8.530;2022-08-03T03:27:10;20.50;99.90
5802;DHT22;2927;49.366;8.530;2022-08-03T03:29:38;20.50;99.90
5802;DHT22;2927;49.366;8.530;2022-08-03T03:32:04;20.50;82.60
5802;DHT22;2927;49.366;8.530;2022-08-03T03:34:30;20.50;1.00
5802;DHT22;2927;49.366;8.530;2022-08-03T03:36:56;20.40;9.40
5802;DHT22;2927;49.366;8.530;2022-08-03T03:39:21;20.50;1.00
5802;DHT22;2927;49.366;8.530;2022-08-03T03:41:47;20.60;1.00
5802;DHT22;2927;49.366;8.530;2022-08-03T03:44:13;20.60;99.90
5802;DHT22;2927;49.366;8.530;2022-08-03T03:46:39;20.60;99.90
5802;DHT22;2927;49.366;8.530;2022-08-03T03:49:05;20.60;1.00
5802;DHT22;2927;49.366;8.530;2022-08-03T03:51:31;20.50;99.90
5802;DHT22;2927;49.366;8.530;2022-08-03T03:53:59;20.60;99.90
5802;DHT22;2927;49.366;8.530;2022-08-03T03:56:25;20.60;1.00
5802;DHT22;2927;49.366;8.530;2022-08-03T03:58:52;20.60;1.00
5802;DHT22;2927;49.366;8.530;2022-08-03T04:01:17;20.50;1.00
5802;DHT22;2927;49.366;8.530;2022-08-03T04:03:43;20.50;99.90
5802;DHT22;2927;49.366;8.530;2022-08-03T04:06:09;20.50;1.00
5802;DHT22;2927;49.366;8.530;2022-08-03T04:08:53;20.40;1.00
5802;DHT22;2927;49.366;8.530;2022-08-03T04:11:45;20.30;99.90
5802;DHT22;2927;49.366;8.530;2022-08-03T04:14:27;20.30;1.00
5802;DHT22;2927;49.366;8.530;2022-08-03T04:16:56;20.20;1.00
5802;DHT22;2927;49.366;8.530;2022-08-03T04:19:39;20.20;1.00
5802;DHT22;2927;49.366;8.530;2022-08-03T04:22:09;20.10;99.90
5802;DHT22;2927;49.366;8.530;2022-08-03T04:24:42;20.20;1.00
5802;DHT22;2927;49.366;8.530;2022-08-03T04:27:10;20.30;1.00
5802;DHT22;2927;49.366;8.530;2022-08-03T04:29:40;20.30;99.90
5802;DHT22;2927;49.366;8.530;2022-08-03T04:32:07;20.30;1.00
5802;DHT22;2927;49.366;8.530;2022-08-03T04:34:33;20.20;99.90
5802;DHT22;2927;49.366;8.530;2022-08-03T04:37:02;20.20;99.90
5802;DHT22;2927;49.366;8.530;2022-08-03T04:39:30;20.20;94.90
5802;DHT22;2927;49.366;8.530;2022-08-03T04:42:03;20.40;99.90
5802;DHT22;2927;49.366;8.530;2022-08-03T04:44:30;20.50;1.00
5802;DHT22;2927;49.366;8.530;2022-08-03T04:46:59;20.50;1.00
5802;DHT22;2927;49.366;8.530;2022-08-03T04:49:25;20.60;1.00
5802;DHT22;2927;49.366;8.530;2022-08-03T04:51:51;20.70;99.90
5802;DHT22;2927;49.366;8.530;2022-08-03T04:54:17;20.70;1.00
5802;DHT22;2927;49.366;8.530;2022-08-03T04:56:43;20.80;99.90
5802;DHT22;2927;49.366;8.530;2022-08-03T04:59:09;20.90;79.40
5802;DHT22;2927;49.366;8.530;2022-08-03T05:01:34;20.90;1.00
5802;DHT22;2927;49.366;8.530;2022-08-03T05:04:00;20.90;1.00
5802;DHT22;2927;49.366;8.530;2022-08-03T05:06:26;21.00;1.00
5802;DHT22;2927;49.366;8.530;2022-08-03T05:08:52;21.10;1.00
5802;DHT22;2927;49.366;8.530;2022-08-03T05:11:18;21.00;1.00
5802;DHT22;2927;49.366;8.530;2022-08-03T05:13:44;21.00;1.00
5802;DHT22;2927;49.366;8.530;2022-08-03T05:16:10;20.90;6.40
5802;DHT22;2927;49.366;8.530;2022-08-03T05:18:36;20.90;1.00
5802;DHT22;2927;49.366;8.530;2022-08-03T05:21:01;21.00;85.30
5802;DHT22;2927;49.366;8.530;2022-08-03T05:23:27;21.00;99.90
5802;DHT22;2927;49.366;8.530;2022-08-03T05:25:52;21.00;1.00
5802;DHT22;2927;49.366;8.530;2022-08-03T05:28:18;21.10;1.00
5802;DHT22;2927;49.366;8.530;2022-08-03T05:30:44;21.20;1.00
5802;DHT22;2927;49.366;8.530;2022-08-03T05:33:09;21.30;1.00
5802;DHT22;2927;49.366;8.530;2022-08-03T05:35:35;21.50;1.00
5802;DHT22;2927;49.366;8.530;2022-08-03T05:38:03;21.60;1.00
5802;DHT22;2927;49.366;8.530;2022-08-03T05:40:29;21.70;1.00
5802;DHT22;2927;49.366;8.530;2022-08-03T05:42:55;21.80;1.00
5802;DHT22;2927;49.366;8.530;2022-08-03T05:45:20;21.90;1.00
5802;DHT22;2927;49.366;8.530;2022-08-03T05:47:46;21.90;99.90
5802;DHT22;2927;49.366;8.530;2022-08-03T05:50:13;22.00;99.90
5802;DHT22;2927;49.366;8.530;2022-08-03T05:52:39;22.10;1.00
5802;DHT22;2927;49.366;8.530;2022-08-03T05:55:06;22.20;1.00
5802;DHT22;2927;49.366;8.530;2022-08-03T05:57:32;22.20;1.00
5802;DHT22;2927;49.366;8.530;2022-08-03T05:59:57;22.40;1.00
5802;DHT22;2927;49.366;8.530;2022-08-03T06:02:23;22.50;1.00
5802;DHT22;2927;49.366;8.530;2022-08-03T06:04:49;22.70;1.00
5802;DHT22;2927;49.366;8.530;2022-08-03T06:07:14;22.80;30.00
5802;DHT22;2927;49.366;8.530;2022-08-03T06:09:40;23.00;95.20
5802;DHT22;2927;49.366;8.530;2022-08-03T06:12:06;23.00;1.00
5802;DHT22;2927;49.366;8.530;2022-08-03T06:14:32;23.20;1.00
5802;DHT22;2927;49.366;8.530;2022-08-03T06:16:57;23.90;1.00
5802;DHT22;2927;49.366;8.530;2022-08-03T06:19:23;24.20;1.00
5802;DHT22;2927;49.366;8.530;2022-08-03T06:21:48;24.40;1.00
5802;DHT22;2927;49.366;8.530;2022-08-03T06:24:14;24.50;1.00
5802;DHT22;2927;49.366;8.530;2022-08-03T06:26:40;24.80;99.90
5802;DHT22;2927;49.366;8.530;2022-08-03T06:29:06;25.20;1.00
5802;DHT22;2927;49.366;8.530;2022-08-03T06:31:31;25.40;1.00
5802;DHT22;2927;49.366;8.530;2022-08-03T06:33:57;24.90;1.00
5802;DHT22;2927;49.366;8.530;2022-08-03T06:36:22;24.70;1.00
5802;DHT22;2927;49.366;8.530;2022-08-03T06:38:48;24.90;1.00
5802;DHT22;2927;49.366;8.530;2022-08-03T06:41:14;25.10;1.00
5802;DHT22;2927;49.366;8.530;2022-08-03T06:43:39;25.30;1.00
5802;DHT22;2927;49.366;8.530;2022-08-03T06:46:05;25.10;1.00
5802;DHT22;2927;49.366;8.530;2022-08-03T06:48:31;25.50;1.00
5802;DHT22;2927;49.366;8.530;2022-08-03T06:50:56;25.50;99.90
5802;DHT22;2927;49.366;8.530;2022-08-03T06:53:22;25.40;99.90
5802;DHT22;2927;49.366;8.530;2022-08-03T06:55:47;25.00;99.90
5802;DHT22;2927;49.366;8.530;2022-08-03T06:58:13;25.50;99.90
5802;DHT22;2927;49.366;8.530;2022-08-03T07:00:38;25.30;99.90
5802;DHT22;2927;49.366;8.530;2022-08-03T07:03:04;25.60;99.90
5802;DHT22;2927;49.366;8.530;2022-08-03T07:05:29;25.50;99.90
5802;DHT22;2927;49.366;8.530;2022-08-03T07:07:58;26.30;12.20
5802;DHT22;2927;49.366;8.530;2022-08-03T07:10:24;26.50;1.00
5802;DHT22;2927;49.366;8.530;2022-08-03T07:12:50;26.20;1.00
5802;DHT22;2927;49.366;8.530;2022-08-03T07:15:16;26.30;1.00
5802;DHT22;2927;49.366;8.530;2022-08-03T07:17:42;26.80;1.00
5802;DHT22;2927;49.366;8.530;2022-08-03T07:20:08;26.40;1.00
5802;DHT22;2927;49.366;8.530;2022-08-03T07:22:34;25.80;1.00
5802;DHT22;2927;49.366;8.530;2022-08-03T07:25:00;25.90;1.00
5802;DHT22;2927;49.366;8.530;2022-08-03T07:27:26;27.00;1.00
5802;DHT22;2927;49.366;8.530;2022-08-03T07:29:53;28.00;1.00
5802;DHT22;2927;49.366;8.530;2022-08-03T07:32:19;28.30;1.00
5802;DHT22;2927;49.366;8.530;2022-08-03T07:34:44;28.40;1.00
5802;DHT22;2927;49.366;8.530;2022-08-03T07:37:10;27.30;1.00
5802;DHT22;2927;49.366;8.530;2022-08-03T07:39:35;27.20;1.00
5802;DHT22;2927;49.366;8.530;2022-08-03T07:42:01;26.70;1.00
5802;DHT22;2927;49.366;8.530;2022-08-03T07:44:26;26.50;1.00
5802;DHT22;2927;49.366;8.530;2022-08-03T07:46:52;26.70;1.00
5802;DHT22;2927;49.366;8.530;2022-08-03T07:49:17;27.30;1.00
5802;DHT22;2927;49.366;8.530;2022-08-03T07:51:43;27.40;1.00
5802;DHT22;2927;49.366;8.530;2022-08-03T07:54:08;28.30;1.00
5802;DHT22;2927;49.366;8.530;2022-08-03T07:56:37;29.20;1.00
5802;DHT22;2927;49.366;8.530;2022-08-03T07:59:02;29.00;1.00
5802;DHT22;2927;49.366;8.530;2022-08-03T08:01:28;29.10;1.00
5802;DHT22;2927;49.366;8.530;2022-08-03T08:03:54;28.40;1.00
5802;DHT22;2927;49.366;8.530;2022-08-03T08:06:20;28.20;1.00
5802;DHT22;2927;49.366;8.530;2022-08-03T08:08:46;27.80;1.00
5802;DHT22;2927;49.366;8.530;2022-08-03T08:11:11;27.60;1.00
5802;DHT22;2927;49.366;8.530;2022-08-03T08:13:37;27.60;1.00
5802;DHT22;2927;49.366;8.530;2022-08-03T08:16:04;27.80;1.00
5802;DHT22;2927;49.366;8.530;2022-08-03T08:18:29;27.80;1.00
5802;DHT22;2927;49.366;8.530;2022-08-03T08:20:56;28.00;1.00
5802;DHT22;2927;49.366;8.530;2022-08-03T08:23:21;27.90;1.00
5802;DHT22;2927;49.366;8.530;2022-08-03T08:25:52;28.50;1.00
5802;DHT22;2927;49.366;8.530;2022-08-03T08:28:18;28.60;1.00
5802;DHT22;2927;49.366;8.530;2022-08-03T08:30:44;28.90;1.00
5802;DHT22;2927;49.366;8.530;2022-08-03T08:33:10;29.50;99.90
5802;DHT22;2927;49.366;8.530;2022-08-03T08:35:36;29.30;99.90
5802;DHT22;2927;49.366;8.530;2022-08-03T08:38:01;30.30;99.90
5802;DHT22;2927;49.366;8.530;2022-08-03T08:40:27;30.30;99.90
5802;DHT22;2927;49.366;8.530;2022-08-03T08:42:53;31.10;99.90
5802;DHT22;2927;49.366;8.530;2022-08-03T08:45:19;32.00;99.90
5802;DHT22;2927;49.366;8.530;2022-08-03T08:47:46;32.30;99.90
5802;DHT22;2927;49.366;8.530;2022-08-03T08:50:13;32.20;99.90
5802;DHT22;2927;49.366;8.530;2022-08-03T08:52:42;31.60;99.90
5802;DHT22;2927;49.366;8.530;2022-08-03T08:55:13;31.10;99.90
5802;DHT22;2927;49.366;8.530;2022-08-03T08:57:50;31.20;99.90
5802;DHT22;2927;49.366;8.530;2022-08-03T09:00:17;30.80;99.90
5802;DHT22;2927;49.366;8.530;2022-08-03T09:02:44;29.90;99.90
5802;DHT22;2927;49.366;8.530;2022-08-03T09:05:15;30.10;99.90
5802;DHT22;2927;49.366;8.530;2022-08-03T09:07:43;30.50;99.90
5802;DHT22;2927;49.366;8.530;2022-08-03T09:10:10;30.30;99.90
5802;DHT22;2927;49.366;8.530;2022-08-03T09:12:42;30.00;99.90
5802;DHT22;2927;49.366;8.530;2022-08-03T09:15:35;30.00;99.90
5802;DHT22;2927;49.366;8.530;2022-08-03T09:18:03;30.10;99.90
5802;DHT22;2927;49.366;8.530;2022-08-03T09:20:31;30.00;99.90
5802;DHT22;2927;49.366;8.530;2022-08-03T09:23:08;29.90;99.90
5802;DHT22;2927;49.366;8.530;2022-08-03T09:25:37;30.20;99.90
5802;DHT22;2927;49.366;8.530;2022-08-03T09:28:08;30.20;99.90
5802;DHT22;2927;49.366;8.530;2022-08-03T09:30:36;31.40;99.90
5802;DHT22;2927;49.366;8.530;2022-08-03T09:33:03;31.80;99.90
5802;DHT22;2927;49.366;8.530;2022-08-03T09:35:29;31.60;99.90
5802;DHT22;2927;49.366;8.530;2022-08-03T09:40:34;31.10;99.90
5802;DHT22;2927;49.366;8.530;2022-08-03T09:43:00;31.50;99.90
5802;DHT22;2927;49.366;8.530;2022-08-03T09:45:26;31.30;99.90
5802;DHT22;2927;49.366;8.530;2022-08-03T09:47:52;31.00;99.90
5802;DHT22;2927;49.366;8.530;2022-08-03T09:50:18;30.70;99.90
5802;DHT22;2927;49.366;8.530;2022-08-03T09:52:43;31.20;99.90
5802;DHT22;2927;49.366;8.530;2022-08-03T09:55:13;31.10;99.90
5802;DHT22;2927;49.366;8.530;2022-08-03T09:57:39;31.00;99.90
5802;DHT22;2927;49.366;8.530;2022-08-03T10:00:11;31.30;99.90
5802;DHT22;2927;49.366;8.530;2022-08-03T10:02:38;31.20;99.90
5802;DHT22;2927;49.366;8.530;2022-08-03T10:05:05;31.20;99.90
5802;DHT22;2927;49.366;8.530;2022-08-03T10:07:44;31.20;99.90
5802;DHT22;2927;49.366;8.530;2022-08-03T10:10:10;31.60;99.90
5802;DHT22;2927;49.366;8.530;2022-08-03T10:12:36;32.60;99.90
5802;DHT22;2927;49.366;8.530;2022-08-03T10:15:03;32.90;99.90
5802;DHT22;2927;49.366;8.530;2022-08-03T10:17:29;32.50;99.90
5802;DHT22;2927;49.366;8.530;2022-08-03T10:19:55;32.30;99.90
5802;DHT22;2927;49.366;8.530;2022-08-03T10:22:22;32.10;99.90
5802;DHT22;2927;49.366;8.530;2022-08-03T10:27:24;31.80;99.90
5802;DHT22;2927;49.366;8.530;2022-08-03T10:29:52;31.70;99.90
5802;DHT22;2927;49.366;8.530;2022-08-03T10:32:27;31.50;99.90
5802;DHT22;2927;49.366;8.530;2022-08-03T10:35:03;31.40;99.90
5802;DHT22;2927;49.366;8.530;2022-08-03T10:37:32;31.60;99.90
5802;DHT22;2927;49.366;8.530;2022-08-03T10:39:59;31.90;99.90
5802;DHT22;2927;49.366;8.530;2022-08-03T10:42:27;32.40;99.90
5802;DHT22;2927;49.366;8.530;2022-08-03T10:45:06;32.30;99.90
5802;DHT22;2927;49.366;8.530;2022-08-03T10:47:34;32.50;99.90
5802;DHT22;2927;49.366;8.530;2022-08-03T10:50:00;32.50;99.90
5802;DHT22;2927;49.366;8.530;2022-08-03T10:52:26;32.50;99.90
5802;DHT22;2927;49.366;8.530;2022-08-03T10:54:52;32.40;99.90
5802;DHT22;2927;49.366;8.530;2022-08-03T10:57:52;32.40;99.90
5802;DHT22;2927;49.366;8.530;2022-08-03T11:00:20;32.10;99.90
5802;DHT22;2927;49.366;8.530;2022-08-03T11:03:09;32.10;99.90
5802;DHT22;2927;49.366;8.530;2022-08-03T11:05:46;32.30;99.90
5802;DHT22;2927;49.366;8.530;2022-08-03T11:08:23;32.20;99.90
5802;DHT22;2927;49.366;8.530;2022-08-03T11:10:50;32.40;99.90
5802;DHT22;2927;49.366;8.530;2022-08-03T11:13:18;32.20;99.90
5802;DHT22;2927;49.366;8.530;2022-08-03T11:15:46;31.80;99.90
5802;DHT22;2927;49.366;8.530;2022-08-03T11:18:13;32.10;99.90
5802;DHT22;2927;49.366;8.530;2022-08-03T11:20:55;32.20;99.90
5802;DHT22;2927;49.366;8.530;2022-08-03T11:23:41;32.40;99.90
5802;DHT22;2927;49.366;8.530;2022-08-03T11:26:08;32.20;99.90
5802;DHT22;2927;49.366;8.530;2022-08-03T11:28:34;32.20;99.90
5802;DHT22;2927;49.366;8.530;2022-08-03T11:34:06;32.20;99.90
5802;DHT22;2927;49.366;8.530;2022-08-03T11:44:55;32.00;99.90
5802;DHT22;2927;49.366;8.530;2022-08-03T11:47:22;32.20;99.90
5802;DHT22;2927;49.366;8.530;2022-08-03T11:49:50;32.30;99.90
5802;DHT22;2927;49.366;8.530;2022-08-03T11:52:18;32.30;99.90
5802;DHT22;2927;49.366;8.530;2022-08-03T11:54:44;32.50;99.90
5802;DHT22;2927;49.366;8.530;2022-08-03T11:57:10;32.50;99.90
5802;DHT22;2927;49.366;8.530;2022-08-03T11:59:36;32.60;99.90
5802;DHT22;2927;49.366;8.530;2022-08-03T12:02:09;32.60;99.90
5802;DHT22;2927;49.366;8.530;2022-08-03T12:07:14;32.70;99.90
5802;DHT22;2927;49.366;8.530;2022-08-03T12:09:40;32.90;99.90
5802;DHT22;2927;49.366;8.530;2022-08-03T12:12:06;32.70;99.90
5802;DHT22;2927;49.366;8.530;2022-08-03T12:14:31;32.70;99.90
5802;DHT22;2927;49.366;8.530;2022-08-03T12:16:57;32.80;99.90
5802;DHT22;2927;49.366;8.530;2022-08-03T12:19:22;32.80;99.90
5802;DHT22;2927;49.366;8.530;2022-08-03T12:21:49;32.80;99.90
5802;DHT22;2927;49.366;8.530;2022-08-03T12:24:15;32.80;99.90
5802;DHT22;2927;49.366;8.530;2022-08-03T12:26:44;33.00;99.90
5802;DHT22;2927;49.366;8.530;2022-08-03T12:29:20;33.20;99.90
5802;DHT22;2927;49.366;8.530;2022-08-03T12:31:45;33.20;99.90
5802;DHT22;2927;49.366;8.530;2022-08-03T12:34:11;33.30;99.90
5802;DHT22;2927;49.366;8.530;2022-08-03T12:36:49;33.30;99.90
5802;DHT22;2927;49.366;8.530;2022-08-03T12:39:15;33.20;99.90
5802;DHT22;2927;49.366;8.530;2022-08-03T12:41:41;33.10;99.90
5802;DHT22;2927;49.366;8.530;2022-08-03T12:44:07;33.30;99.90
5802;DHT22;2927;49.366;8.530;2022-08-03T12:46:35;33.70;99.90
5802;DHT22;2927;49.366;8.530;2022-08-03T12:49:07;33.90;99.90
5802;DHT22;2927;49.366;8.530;2022-08-03T12:54:08;33.50;99.90
5802;DHT22;2927;49.366;8.530;2022-08-03T12:56:34;33.70;99.90
5802;DHT22;2927;49.366;8.530;2022-08-03T12:59:22;33.70;99.90
5802;DHT22;2927;49.366;8.530;2022-08-03T13:01:46;33.90;99.90
5802;DHT22;2927;49.366;8.530;2022-08-03T13:04:11;33.80;99.90
5802;DHT22;2927;49.366;8.530;2022-08-03T13:06:37;33.90;99.90
5802;DHT22;2927;49.366;8.530;2022-08-03T13:09:04;34.00;99.90
5802;DHT22;2927;49.366;8.530;2022-08-03T13:11:30;33.90;99.90
5802;DHT22;2927;49.366;8.530;2022-08-03T13:13:56;33.90;99.90
5802;DHT22;2927;49.366;8.530;2022-08-03T13:16:21;34.00;99.90
5802;DHT22;2927;49.366;8.530;2022-08-03T13:18:48;33.90;99.90
5802;DHT22;2927;49.366;8.530;2022-08-03T13:21:15;34.00;99.90
5802;DHT22;2927;49.366;8.530;2022-08-03T13:23:41;33.80;99.90
5802;DHT22;2927;49.366;8.530;2022-08-03T13:26:08;33.80;99.90
5802;DHT22;2927;49.366;8.530;2022-08-03T13:28:33;33.90;99.90
5802;DHT22;2927;49.366;8.530;2022-08-03T13:30:59;34.00;99.90
5802;DHT22;2927;49.366;8.530;2022-08-03T13:33:28;33.90;99.90
5802;DHT22;2927;49.366;8.530;2022-08-03T13:35:54;33.90;99.90
5802;DHT22;2927;49.366;8.530;2022-08-03T13:38:19;34.00;99.90
5802;DHT22;2927;49.366;8.530;2022-08-03T13:40:45;34.10;99.90
5802;DHT22;2927;49.366;8.530;2022-08-03T13:43:10;34.20;99.90
5802;DHT22;2927;49.366;8.530;2022-08-03T13:45:37;34.00;99.90
5802;DHT22;2927;49.366;8.530;2022-08-03T13:48:03;34.10;99.90
5802;DHT22;2927;49.366;8.530;2022-08-03T13:50:28;34.00;99.90
5802;DHT22;2927;49.366;8.530;2022-08-03T13:52:55;34.40;99.90
5802;DHT22;2927;49.366;8.530;2022-08-03T13:55:21;34.40;99.90
5802;DHT22;2927;49.366;8.530;2022-08-03T13:57:46;34.30;99.90
5802;DHT22;2927;49.366;8.530;2022-08-03T14:00:12;34.30;99.90
5802;DHT22;2927;49.366;8.530;2022-08-03T14:02:38;34.30;99.90
5802;DHT22;2927;49.366;8.530;2022-08-03T14:05:04;34.20;99.90
5802;DHT22;2927;49.366;8.530;2022-08-03T14:07:29;34.20;99.90
5802;DHT22;2927;49.366;8.530;2022-08-03T14:09:55;34.20;99.90
5802;DHT22;2927;49.366;8.530;2022-08-03T14:12:21;34.20;99.90
5802;DHT22;2927;49.366;8.530;2022-08-03T14:14:46;34.20;99.90
5802;DHT22;2927;49.366;8.530;2022-08-03T14:17:12;34.20;99.90
5802;DHT22;2927;49.366;8.530;2022-08-03T14:19:37;34.60;99.90
5802;DHT22;2927;49.366;8.530;2022-08-03T14:22:03;34.50;99.90
5802;DHT22;2927;49.366;8.530;2022-08-03T14:24:28;34.20;99.90
5802;DHT22;2927;49.366;8.530;2022-08-03T14:26:54;34.30;99.90
5802;DHT22;2927;49.366;8.530;2022-08-03T14:29:19;34.40;99.90
5802;DHT22;2927;49.366;8.530;2022-08-03T14:31:45;34.30;99.90
5802;DHT22;2927;49.366;8.530;2022-08-03T14:34:10;34.30;99.90
5802;DHT22;2927;49.366;8.530;2022-08-03T14:36:36;34.30;99.90
5802;DHT22;2927;49.366;8.530;2022-08-03T14:39:01;34.40;99.90
5802;DHT22;2927;49.366;8.530;2022-08-03T14:41:27;34.50;99.90
5802;DHT22;2927;49.366;8.530;2022-08-03T14:43:52;35.10;99.90
5802;DHT22;2927;49.366;8.530;2022-08-03T14:46:18;35.50;99.90
5802;DHT22;2927;49.366;8.530;2022-08-03T14:48:44;35.70;99.90
5802;DHT22;2927;49.366;8.530;2022-08-03T14:51:09;35.90;99.90
5802;DHT22;2927;49.366;8.530;2022-08-03T14:53:35;36.30;99.90
5802;DHT22;2927;49.366;8.530;2022-08-03T14:56:01;36.00;99.90
5802;DHT22;2927;49.366;8.530;2022-08-03T14:58:27;36.20;99.90
5802;DHT22;2927;49.366;8.530;2022-08-03T15:00:54;36.50;99.90
5802;DHT22;2927;49.366;8.530;2022-08-03T15:03:20;37.40;99.90
5802;DHT22;2927;49.366;8.530;2022-08-03T15:05:54;37.40;99.90
5802;DHT22;2927;49.366;8.530;2022-08-03T15:08:21;37.50;99.90
5802;DHT22;2927;49.366;8.530;2022-08-03T15:10:47;38.00;99.90
5802;DHT22;2927;49.366;8.530;2022-08-03T15:13:13;38.40;99.90
5802;DHT22;2927;49.366;8.530;2022-08-03T15:15:39;38.50;99.90
5802;DHT22;2927;49.366;8.530;2022-08-03T15:18:04;38.10;99.90
5802;DHT22;2927;49.366;8.530;2022-08-03T15:20:30;38.00;99.90
5802;DHT22;2927;49.366;8.530;2022-08-03T15:22:55;38.10;99.90
5802;DHT22;2927;49.366;8.530;2022-08-03T15:25:21;37.70;99.90
5802;DHT22;2927;49.366;8.530;2022-08-03T15:27:46;37.80;99.90
5802;DHT22;2927;49.366;8.530;2022-08-03T15:30:12;37.40;99.90
5802;DHT22;2927;49.366;8.530;2022-08-03T15:32:38;37.60;99.90
5802;DHT22;2927;49.366;8.530;2022-08-03T15:35:03;37.60;99.90
5802;DHT22;2927;49.366;8.530;2022-08-03T15:37:29;37.20;99.90
5802;DHT22;2927;49.366;8.530;2022-08-03T15:39:55;37.40;99.90
5802;DHT22;2927;49.366;8.530;2022-08-03T15:42:20;38.00;99.90
5802;DHT22;2927;49.366;8.530;2022-08-03T15:44:46;38.30;99.90
5802;DHT22;2927;49.366;8.530;2022-08-03T15:47:11;38.50;99.90
5802;DHT22;2927;49.366;8.530;2022-08-03T15:49:37;38.60;99.90
5802;DHT22;2927;49.366;8.530;2022-08-03T15:52:02;39.20;99.90
5802;DHT22;2927;49.366;8.530;2022-08-03T15:54:28;39.40;99.90
5802;DHT22;2927;49.366;8.530;2022-08-03T15:56:53;39.80;99.90
5802;DHT22;2927;49.366;8.530;2022-08-03T15:59:19;39.20;99.90
5802;DHT22;2927;49.366;8.530;2022-08-03T16:01:46;38.60;99.90
5802;DHT22;2927;49.366;8.530;2022-08-03T16:04:13;38.80;99.90
5802;DHT22;2927;49.366;8.530;2022-08-03T16:06:38;39.00;99.90
5802;DHT22;2927;49.366;8.530;2022-08-03T16:09:05;39.30;99.90
5802;DHT22;2927;49.366;8.530;2022-08-03T16:11:31;39.30;99.90
5802;DHT22;2927;49.366;8.530;2022-08-03T16:13:56;39.30;99.90
5802;DHT22;2927;49.366;8.530;2022-08-03T16:16:22;39.20;99.90
5802;DHT22;2927;49.366;8.530;2022-08-03T16:18:47;39.20;99.90
5802;DHT22;2927;49.366;8.530;2022-08-03T16:21:13;39.00;99.90
5802;DHT22;2927;49.366;8.530;2022-08-03T16:23:39;39.50;99.90
5802;DHT22;2927;49.366;8.530;2022-08-03T16:26:05;39.90;99.90
5802;DHT22;2927;49.366;8.530;2022-08-03T16:28:30;39.70;99.90
5802;DHT22;2927;49.366;8.530;2022-08-03T16:30:58;39.30;99.90
5802;DHT22;2927;49.366;8.530;2022-08-03T16:33:24;39.30;99.90
5802;DHT22;2927;49.366;8.530;2022-08-03T16:35:49;39.30;99.90
5802;DHT22;2927;49.366;8.530;2022-08-03T16:38:15;38.90;99.90